Time;durP1;ratioP1;P1;durP2;ratioP2;P2;SDS_P1;SDS_P2;PMS_P1;PMS_P2;Temp;Humidity;BMP_temperature;BMP_pressure;BME280_temperature;BME280_humidity;BME280_pressure;Samples;Min_cycle;Max_cycle;Signal;HPM_P1;HPM_P2
2022/12/01 00:02:05;;;;;;;27.87;7.60;;;;;;;21.19;61.78;100366.22;7315776;19;129352;-70
2022/12/01 00:04:31;;;;;;;28.05;7.13;;;;;;;21.07;61.69;100348.88;7318966;19;128820;-74
2022/12/01 00:06:56;;;;;;;44.67;9.13;;;;;;;21.20;61.98;100367.06;7317024;19;129603;-71
2022/12/01 00:12:05;;;;;;;48.80;8.98;;;;;;;21.30;61.21;100374.09;7315852;19;128921;-76
2022/12/01 00:14:31;;;;;;;34.03;8.43;;;;;;;21.37;61.30;100371.81;7316607;19;129128;-74
2022/12/01 00:16:56;;;;;;;44.93;8.20;;;;;;;21.46;61.42;100369.31;7315803;19;130859;-75
2022/12/01 00:19:25;;;;;;;38.03;8.33;;;;;;;21.56;60.50;100367.66;7316246;19;129474;-75
2022/12/01 00:21:51;;;;;;;43.13;7.90;;;;;;;21.67;60.71;100367.63;7314549;19;129262;-75
2022/12/01 00:24:16;;;;;;;26.42;6.90;;;;;;;21.79;60.27;100365.84;7317576;19;129146;-75
2022/12/01 00:26:41;;;;;;;42.20;8.47;;;;;;;21.86;59.94;100370.50;7313978;19;131724;-76
2022/12/01 00:29:07;;;;;;;38.28;8.35;;;;;;;21.93;59.34;100365.59;7315500;19;128667;-74
2022/12/01 00:31:33;;;;;;;46.03;8.23;;;;;;;21.95;58.88;100340.09;7314836;19;129265;-72
2022/12/01 00:33:58;;;;;;;26.42;7.18;;;;;;;22.14;59.28;100360.38;7317867;19;129123;-75
2022/12/01 00:36:24;;;;;;;34.90;7.93;;;;;;;22.20;58.97;100354.66;7313028;19;132274;-73
2022/12/01 00:38:54;;;;;;;30.57;7.33;;;;;;;22.13;58.42;100338.59;7317608;19;128854;-71
2022/12/01 00:41:20;;;;;;;40.03;8.15;;;;;;;22.14;58.60;100344.69;7314721;19;129340;-75
2022/12/01 00:43:46;;;;;;;20.65;7.80;;;;;;;22.25;58.16;100357.72;7317850;19;128987;-75
2022/12/01 00:46:11;;;;;;;28.13;7.60;;;;;;;22.14;58.79;100339.44;7315787;19;129483;-74
2022/12/01 00:48:37;;;;;;;34.70;7.50;;;;;;;22.22;58.80;100358.81;7314817;19;129569;-75
2022/12/01 00:51:02;;;;;;;43.43;8.03;;;;;;;22.18;58.55;100361.81;7314968;19;128778;-70
2022/12/01 00:53:28;;;;;;;24.98;6.63;;;;;;;22.15;59.03;100356.84;7315520;19;129470;-75
2022/12/01 00:55:53;;;;;;;71.47;10.47;;;;;;;21.98;59.39;100339.03;7312195;19;129905;-70
2022/12/01 00:58:19;;;;;;;50.58;8.85;;;;;;;22.05;59.90;100351.47;7314542;19;129728;-72
2022/12/01 01:00:44;;;;;;;74.25;9.45;;;;;;;22.00;59.77;100353.66;7313688;19;129908;-71
2022/12/01 01:03:10;;;;;;;25.80;6.82;;;;;;;21.94;59.42;100364.63;7316637;19;129012;-71
2022/12/01 01:05:37;;;;;;;31.60;7.20;;;;;;;21.89;59.91;100366.78;7316061;19;129525;-70
2022/12/01 01:08:09;;;;;;;26.52;6.45;;;;;;;21.80;60.18;100362.25;7313637;19;129766;-75
2022/12/01 01:10:43;;;;;;;46.00;7.55;;;;;;;21.79;60.34;100365.84;7315221;19;129400;-77
2022/12/01 01:13:10;;;;;;;24.27;7.15;;;;;;;21.73;60.92;100369.75;7315035;19;129777;-75
2022/12/01 01:15:35;;;;;;;;;;;;;;;21.72;60.99;100370.69;7315631;19;132304;-74
2022/12/01 01:18:01;;;;;;;28.65;6.63;;;;;;;21.70;61.08;100367.38;7314339;19;129358;-76
2022/12/01 01:20:27;;;;;;;47.93;7.63;;;;;;;21.73;60.49;100361.88;7314392;19;129406;-76
2022/12/01 01:22:52;;;;;;;51.22;8.20;;;;;;;21.78;60.61;100364.19;7315195;19;129160;-70
2022/12/01 01:25:18;;;;;;;31.80;7.53;;;;;;;21.86;60.45;100357.41;7314625;19;129180;-77
2022/12/01 01:27:43;;;;;;;38.47;7.33;;;;;;;21.83;59.96;100356.81;7314012;19;129970;-75
2022/12/01 01:30:09;;;;;;;49.80;8.70;;;;;;;21.95;59.90;100367.13;7314342;19;129167;-71
2022/12/01 01:32:34;;;;;;;30.77;7.07;;;;;;;21.95;59.51;100364.50;7314873;19;129591;-75
2022/12/01 01:35:00;;;;;;;14.88;5.80;;;;;;;22.06;59.37;100370.66;7314126;19;132156;-75
2022/12/01 01:37:25;;;;;;;31.70;7.13;;;;;;;22.08;59.43;100366.13;7313159;19;129023;-74
2022/12/01 01:39:50;;;;;;;45.33;7.83;;;;;;;22.13;59.57;100363.97;7314950;19;128977;-73
2022/12/01 01:42:18;;;;;;;25.77;6.22;;;;;;;22.12;59.26;100367.53;7314650;19;129880;-77
2022/12/01 01:44:55;;;;;;;27.52;6.55;;;;;;;22.08;59.44;100371.38;7315721;19;129751;-75
2022/12/01 01:47:33;;;;;;;33.50;7.43;;;;;;;22.06;59.40;100373.28;7311744;19;132338;-75
2022/12/01 01:50:05;;;;;;;45.92;7.68;;;;;;;21.91;59.29;100357.81;7313227;19;129255;-74
2022/12/01 01:52:32;;;;;;;44.30;7.80;;;;;;;21.93;59.61;100373.44;7313834;19;128991;-71
2022/12/01 01:54:58;;;;;;;29.58;7.35;;;;;;;21.96;59.80;100376.63;7315814;19;129425;-71
2022/12/01 01:57:30;;;;;;;32.13;6.93;;;;;;;21.93;60.19;100373.44;7311717;19;132280;-75
2022/12/01 02:00:09;;;;;;;33.72;6.70;;;;;;;21.86;60.67;100367.88;7312130;19;129406;-74
2022/12/01 02:02:39;;;;;;;20.65;6.20;;;;;;;21.80;60.24;100368.34;7314249;19;129583;-72
2022/12/01 02:05:09;;;;;;;24.58;6.53;;;;;;;21.79;60.75;100364.06;7314774;19;130182;-71
2022/12/01 02:07:38;;;;;;;29.25;6.15;;;;;;;21.74;60.71;100365.34;7310397;19;131995;-74
2022/12/01 02:10:05;;;;;;;39.85;7.53;;;;;;;21.70;61.17;100356.09;7313360;19;128907;-75
2022/12/01 02:12:57;;;;;;;14.68;5.70;;;;;;;21.68;60.59;100364.03;7313445;19;129452;-71
2022/12/01 02:15:32;;;;;;;34.67;7.45;;;;;;;21.70;61.16;100371.78;7313795;19;129361;-76
2022/12/01 02:17:57;;;;;;;26.88;6.03;;;;;;;21.79;60.95;100371.06;7314803;19;132388;-72
2022/12/01 02:20:36;;;;;;;40.35;6.70;;;;;;;21.83;60.40;100369.91;7310727;19;129367;-73
2022/12/01 02:23:08;;;;;;;15.77;5.43;;;;;;;21.83;60.01;100365.47;7313712;19;129331;-70
2022/12/01 02:25:44;;;;;;;47.10;7.60;;;;;;;21.84;60.45;100369.78;7313030;19;129755;-75
2022/12/01 02:28:31;;;;;;;29.40;6.82;;;;;;;21.89;59.97;100370.25;7312891;19;129426;-74
2022/12/01 02:31:08;;;;;;;33.33;6.13;;;;;;;21.94;59.97;100375.94;7312033;19;128851;-74
2022/12/01 02:33:50;;;;;;;26.20;6.60;;;;;;;22.03;59.91;100370.91;7314047;19;129483;-75
2022/12/01 02:36:25;;;;;;;28.02;6.55;;;;;;;22.07;59.45;100374.94;7312774;19;131282;-72
2022/12/01 02:39:02;;;;;;;46.42;7.65;;;;;;;21.96;59.83;100358.28;7311103;19;132535;-72
2022/12/01 02:41:35;;;;;;;40.47;7.15;;;;;;;22.01;59.85;100370.19;7311895;19;129339;-76
2022/12/01 02:44:26;;;;;;;43.13;6.90;;;;;;;21.87;59.56;100353.81;7311944;19;129388;-72
2022/12/01 02:47:11;;;;;;;35.28;6.45;;;;;;;21.82;60.27;100345.50;7313269;19;129697;-74
2022/12/01 02:49:41;;;;;;;33.90;6.25;;;;;;;21.93;60.44;100373.44;7311723;19;131502;-75
2022/12/01 02:52:10;;;;;;;24.75;5.97;;;;;;;21.79;60.41;100369.31;7310573;19;130729;-75
2022/12/01 02:54:36;;;;;;;12.52;5.05;;;;;;;21.83;60.22;100389.03;7312743;19;129055;-74
2022/12/01 02:57:01;;;;;;;29.15;5.93;;;;;;;21.71;60.60;100373.44;7309325;19;133127;-76
2022/12/01 02:59:27;;;;;;;25.88;5.25;;;;;;;21.72;60.89;100391.63;7310981;19;131948;-69
2022/12/01 03:02:08;;;;;;;27.50;5.97;;;;;;;21.69;61.16;100378.81;7308462;19;128938;-72
2022/12/01 03:04:45;;;;;;;29.63;6.40;;;;;;;21.66;60.77;100384.28;7312583;19;129414;-75
2022/12/01 03:07:32;;;;;;;36.95;6.72;;;;;;;21.68;60.80;100374.50;7311547;19;129486;-74
2022/12/01 03:10:41;;;;;;;29.38;6.28;;;;;;;21.74;60.91;100371.41;7307671;19;132260;-74
2022/12/01 03:13:37;;;;;;;25.15;6.00;;;;;;;21.76;60.84;100369.56;7310087;19;129388;-75
2022/12/01 03:16:21;;;;;;;77.38;10.23;;;;;;;21.82;60.10;100373.44;7312407;19;129669;-73
2022/12/01 03:18:57;;;;;;;27.30;6.10;;;;;;;21.87;60.00;100369.53;7311473;19;133011;-74
2022/12/01 03:21:34;;;;;;;24.83;5.70;;;;;;;21.90;60.58;100358.78;7310463;19;129458;-75
2022/12/01 03:24:05;;;;;;;28.00;6.37;;;;;;;21.95;60.38;100367.13;7312644;19;129191;-71
2022/12/01 03:26:33;;;;;;;11.50;4.90;;;;;;;22.08;59.90;100376.59;7310561;19;128799;-75
2022/12/01 03:29:05;;;;;;;40.58;6.38;;;;;;;22.03;60.18;100363.06;7311058;19;129323;-75
2022/12/01 03:31:39;;;;;;;60.20;7.82;;;;;;;22.00;59.79;100364.13;7307994;19;133250;-75
2022/12/01 03:34:22;;;;;;;28.80;6.05;;;;;;;21.98;60.20;100364.25;7313542;19;129479;-73
2022/12/01 03:37:08;;;;;;;28.48;5.90;;;;;;;22.00;59.93;100365.94;7307820;19;129996;-71
2022/12/01 03:39:37;;;;;;;37.88;6.57;;;;;;;21.92;60.01;100349.03;7309947;19;129880;-75
2022/12/01 03:42:11;;;;;;;24.77;5.38;;;;;;;22.07;60.23;100374.94;7309402;19;129856;-75
2022/12/01 03:44:54;;;;;;;37.90;6.70;;;;;;;22.13;59.58;100374.44;7310092;19;129561;-75
2022/12/01 03:47:28;;;;;;;35.85;6.35;;;;;;;22.10;59.77;100353.75;7311347;19;129497;-75
2022/12/01 03:49:55;;;;;;;81.25;9.52;;;;;;;22.23;59.14;100372.75;7306874;19;129998;-70
2022/12/01 03:52:35;;;;;;;;;;;;;;;22.25;59.13;100368.19;7309701;19;132261;-71
2022/12/01 03:55:19;;;;;;;35.53;6.63;;;;;;;22.25;59.01;100363.78;7314125;19;129001;-75
2022/12/01 03:57:52;;;;;;;33.67;6.43;;;;;;;22.29;59.23;100372.25;7317679;19;129606;-76
2022/12/01 04:00:18;;;;;;;30.42;5.68;;;;;;;22.31;59.27;100372.94;7316947;19;129596;-76
2022/12/01 04:02:44;;;;;;;29.30;5.97;;;;;;;22.26;59.58;100372.50;7315593;19;132333;-75
2022/12/01 04:05:09;;;;;;;38.90;6.40;;;;;;;22.32;58.64;100375.44;7318498;19;129731;-75
2022/12/01 04:07:36;;;;;;;21.67;5.47;;;;;;;22.27;58.96;100382.00;7317313;19;129054;-75
2022/12/01 04:10:02;;;;;;;;;;;;;;;22.21;59.92;100383.34;7314567;19;132830;-73
2022/12/01 04:12:31;;;;;;;28.42;5.75;;;;;;;22.18;59.24;100374.91;7316731;19;132329;-70
2022/12/01 04:15:10;;;;;;;37.17;6.25;;;;;;;22.14;59.55;100391.81;7318854;19;129613;-73
2022/12/01 04:17:35;;;;;;;22.50;5.50;;;;;;;22.11;59.81;100389.44;7316305;19;128881;-70
2022/12/01 04:20:02;;;;;;;37.53;6.53;;;;;;;22.02;60.15;100377.09;7317518;19;129546;-72
2022/12/01 04:22:27;;;;;;;;;;;;;;;21.92;60.56;100383.06;7315433;19;131982;-75
2022/12/01 04:24:53;;;;;;;33.20;5.47;;;;;;;21.86;60.87;100385.34;7317395;19;130125;-76
2022/12/01 04:27:19;;;;;;;36.25;6.15;;;;;;;21.71;60.64;100369.06;7315105;19;129513;-72
2022/12/01 04:29:44;;;;;;;28.98;5.80;;;;;;;21.72;61.08;100386.41;7315028;19;129649;-77
2022/12/01 04:32:10;;;;;;;29.35;5.85;;;;;;;21.71;61.14;100383.91;7313961;19;130026;-75
2022/12/01 04:34:36;;;;;;;39.20;6.47;;;;;;;21.67;61.49;100385.94;7316988;19;130092;-69
2022/12/01 04:37:04;;;;;;;27.43;6.43;;;;;;;21.61;60.82;100383.81;7313562;19;129099;-74
2022/12/01 04:39:30;;;;;;;26.23;7.65;;;;;;;21.57;58.49;100377.16;7318175;19;129716;-76
2022/12/01 04:41:55;;;;;;;35.20;9.15;;;;;;;21.40;56.81;100363.72;7316322;19;129710;-72
2022/12/01 04:44:20;;;;;;;42.15;10.57;;;;;;;21.47;57.06;100383.25;7317766;19;129290;-68
2022/12/01 04:46:46;;;;;;;33.67;10.55;;;;;;;21.39;55.07;100383.81;7315081;19;129206;-74
2022/12/01 04:49:11;;;;;;;46.72;11.73;;;;;;;21.30;54.39;100379.31;7314553;19;129610;-74
2022/12/01 04:58:12;;;;;;;82.75;15.65;;;;;;;21.32;55.84;100385.22;7321450;19;130313;-69
2022/12/01 05:00:37;;;;;;;32.20;10.75;;;;;;;21.33;54.83;100394.75;7182953;19;3087039;-74
2022/12/01 05:03:03;;;;;;;33.92;11.43;;;;;;;21.38;55.76;100387.41;7345680;19;129383;-71
2022/12/01 05:05:29;;;;;;;33.88;11.23;;;;;;;21.42;54.39;100388.81;7346524;19;130730;-74
2022/12/01 05:07:54;;;;;;;44.08;12.35;;;;;;;21.44;53.69;100383.44;7342481;19;129025;-71
2022/12/01 05:10:20;;;;;;;42.17;13.10;;;;;;;21.39;53.60;100381.19;7345199;19;129296;-71
2022/12/01 05:12:46;;;;;;;58.00;13.18;;;;;;;21.41;53.63;100381.06;7344360;19;130550;-72
2022/12/01 05:15:11;;;;;;;45.28;11.95;;;;;;;21.57;54.24;100382.38;7345311;19;130045;-71
2022/12/01 05:17:37;;;;;;;49.55;12.00;;;;;;;21.79;52.98;100382.38;7342206;19;129322;-77
2022/12/01 05:22:48;;;;;;;65.97;13.85;;;;;;;22.08;52.87;100392.31;7343945;19;129482;-71
2022/12/01 05:25:13;;;;;;;32.90;12.02;;;;;;;22.09;52.80;100393.97;7344301;19;130150;-71
2022/12/01 05:27:38;;;;;;;54.43;13.53;;;;;;;22.06;52.26;100391.59;7342710;19;129830;-71
2022/12/01 05:30:05;;;;;;;62.30;13.43;;;;;;;22.04;53.74;100388.28;7345450;19;130810;-73
2022/12/01 05:32:30;;;;;;;26.83;10.57;;;;;;;22.15;52.73;100393.50;7345524;19;130961;-73
2022/12/01 05:34:55;;;;;;;50.35;13.27;;;;;;;22.26;52.26;100389.06;7343533;19;131936;-72
2022/12/01 05:37:21;;;;;;;52.65;12.73;;;;;;;22.38;51.56;100390.66;7340757;19;129948;-70
2022/12/01 05:39:46;;;;;;;50.63;13.68;;;;;;;22.37;51.09;100393.41;7344997;19;129095;-71
2022/12/01 05:42:11;;;;;;;39.50;13.13;;;;;;;22.33;51.09;100394.63;7343445;19;129275;-73
2022/12/01 05:44:37;;;;;;;53.00;14.50;;;;;;;22.22;50.90;100368.44;7345462;19;129348;-71
2022/12/01 05:47:02;;;;;;;51.85;13.07;;;;;;;22.33;51.82;100394.63;7344115;19;129040;-75
2022/12/01 05:49:27;;;;;;;46.70;13.73;;;;;;;22.33;51.53;100392.00;7347562;19;129270;-72
2022/12/01 05:51:53;;;;;;;47.78;13.52;;;;;;;22.31;50.21;100394.75;7354490;19;130770;-72
2022/12/01 05:54:18;;;;;;;59.88;14.25;;;;;;;22.31;50.78;100388.66;7341685;19;132102;-71
2022/12/01 05:56:43;;;;;;;138.88;21.30;;;;;;;22.24;49.81;100392.75;7320103;19;129734;-70
2022/12/01 05:59:09;;;;;;;204.35;27.52;;;;;;;22.14;49.95;100386.59;7314475;19;131762;-71
2022/12/01 06:01:34;;;;;;;101.85;19.10;;;;;;;22.19;49.58;100400.97;7312933;19;129951;-70
2022/12/01 06:03:59;;;;;;;140.32;21.02;;;;;;;22.16;50.22;100401.22;7316564;19;130758;-70
2022/12/01 06:06:25;;;;;;;140.95;21.80;;;;;;;22.14;50.65;100403.13;7311545;19;130182;-71
2022/12/01 06:08:50;;;;;;;143.55;20.60;;;;;;;22.14;51.38;100408.38;7294620;19;130348;-70
2022/12/01 06:11:15;;;;;;;60.05;14.23;;;;;;;22.15;51.46;100415.25;7305140;19;130516;-72
2022/12/01 06:13:41;;;;;;;68.20;14.37;;;;;;;22.16;51.48;100409.09;7312209;19;129569;-71
2022/12/01 06:16:07;;;;;;;96.80;16.48;;;;;;;22.16;51.71;100416.09;7314141;19;129275;-71
2022/12/01 06:18:36;;;;;;;34.72;12.45;;;;;;;22.17;51.75;100412.50;7313767;19;129229;-71
2022/12/01 06:21:03;;;;;;;34.85;12.50;;;;;;;22.15;51.86;100422.31;7312207;19;129479;-72
2022/12/01 06:23:28;;;;;;;;;;;;;;;22.10;52.09;100421.84;7315220;19;130059;-71
2022/12/01 06:25:53;;;;;;;57.50;14.07;;;;;;;22.10;52.19;100421.84;7312386;19;129142;-71
2022/12/01 06:28:19;;;;;;;47.97;12.32;;;;;;;22.07;52.28;100422.91;7311855;19;129614;-72
2022/12/01 06:30:44;;;;;;;50.13;13.27;;;;;;;22.07;51.82;100417.66;7311910;19;130255;-71
2022/12/01 06:33:10;;;;;;;62.07;14.27;;;;;;;22.07;51.46;100419.44;7312243;19;130234;-70
2022/12/01 06:35:36;;;;;;;40.93;12.87;;;;;;;22.06;51.75;100420.41;7313563;19;129656;-70
2022/12/01 06:38:02;;;;;;;62.23;14.60;;;;;;;21.98;51.96;100417.56;7309929;19;129680;-70
2022/12/01 06:40:27;;;;;;;52.30;13.85;;;;;;;21.96;51.47;100417.69;7308553;19;131156;-70
2022/12/01 06:42:53;;;;;;;84.95;15.27;;;;;;;21.95;51.20;100424.72;7313612;19;130052;-71
2022/12/01 06:45:19;;;;;;;33.47;11.85;;;;;;;21.94;51.88;100425.69;7319116;19;129655;-69
2022/12/01 06:47:46;;;;;;;54.80;13.33;;;;;;;21.92;51.54;100422.34;7322384;19;129007;-71
2022/12/01 06:50:12;;;;;;;52.35;14.05;;;;;;;21.91;51.71;100428.50;7313623;19;130667;-71
2022/12/01 06:52:37;;;;;;;58.40;13.55;;;;;;;21.94;52.22;100428.31;7315574;19;129594;-71
2022/12/01 06:55:04;;;;;;;38.17;13.10;;;;;;;21.95;51.76;100431.72;7313986;19;130641;-71
2022/12/01 06:57:30;;;;;;;38.50;13.00;;;;;;;21.95;51.91;100435.19;7310110;19;129971;-72
2022/12/01 06:59:55;;;;;;;64.00;14.70;;;;;;;21.95;52.74;100429.94;7313104;19;129284;-71
2022/12/01 07:02:21;;;;;;;51.88;13.82;;;;;;;21.96;52.07;100434.22;7315185;19;129672;-71
2022/12/01 07:04:46;;;;;;;51.22;12.65;;;;;;;21.97;52.38;100432.44;7313333;19;129145;-72
2022/12/01 07:07:11;;;;;;;41.75;12.15;;;;;;;21.98;52.61;100434.94;7313072;19;129155;-71
2022/12/01 07:09:38;;;;;;;64.43;15.00;;;;;;;21.98;51.99;100443.75;7313653;19;129981;-72
2022/12/01 07:12:03;;;;;;;52.33;12.50;;;;;;;21.88;52.56;100436.63;7308282;19;129795;-71
2022/12/01 07:14:30;;;;;;;33.42;11.88;;;;;;;21.92;52.77;100445.06;7313620;19;128934;-70
2022/12/01 07:16:55;;;;;;;;;;;;;;;21.85;52.59;100449.94;7308595;19;130172;-71
2022/12/01 07:19:21;;;;;;;59.95;13.20;;;;;;;21.82;53.45;100449.34;7311308;19;128947;-71
2022/12/01 07:21:46;;;;;;;74.60;14.45;;;;;;;21.84;52.90;100448.31;7308447;19;130969;-70
2022/12/01 07:24:12;;;;;;;38.88;11.95;;;;;;;21.84;53.35;100453.53;7314248;19;129475;-70
2022/12/01 07:26:37;;;;;;;43.13;12.27;;;;;;;21.86;52.59;100456.88;7312191;19;128942;-71
2022/12/01 07:29:03;;;;;;;55.33;13.15;;;;;;;21.83;52.95;100457.09;7311560;19;132397;-70
2022/12/01 07:31:28;;;;;;;40.85;12.95;;;;;;;21.86;52.93;100451.63;7310849;19;130792;-71
2022/12/01 07:33:54;;;;;;;53.20;13.55;;;;;;;21.85;53.44;100451.72;7312505;19;130960;-72
2022/12/01 07:36:19;;;;;;;35.33;11.88;;;;;;;21.87;52.77;100448.06;7308928;19;129667;-71
2022/12/01 07:38:45;;;;;;;71.40;14.30;;;;;;;21.89;52.73;100456.63;7312749;19;129896;-71
2022/12/01 07:41:13;;;;;;;50.37;13.47;;;;;;;21.79;53.36;100436.50;7307891;19;130599;-71
2022/12/01 07:43:39;;;;;;;54.50;12.68;;;;;;;21.88;52.77;100454.94;7311712;19;129353;-71
2022/12/01 07:46:12;;;;;;;81.70;15.70;;;;;;;21.89;53.26;100455.78;7311460;19;128876;-71
2022/12/01 07:48:39;;;;;;;61.25;13.30;;;;;;;21.78;53.45;100438.28;7312010;19;129969;-71
2022/12/01 07:51:05;;;;;;;;;;;;;;;21.88;53.42;100457.56;7312737;19;129874;-71
2022/12/01 07:53:31;;;;;;;37.67;12.25;;;;;;;21.87;53.32;100452.44;7311855;19;129236;-71
2022/12/01 07:55:57;;;;;;;74.88;14.63;;;;;;;21.86;53.00;100451.63;7310224;19;129639;-70
2022/12/01 07:58:22;;;;;;;52.42;12.85;;;;;;;21.90;53.86;100463.50;7310010;19;129773;-71
2022/12/01 08:00:48;;;;;;;66.28;13.77;;;;;;;21.86;53.40;100459.50;7309203;19;129870;-71
2022/12/01 08:03:13;;;;;;;45.10;12.77;;;;;;;21.88;53.99;100464.59;7311963;19;129669;-71
2022/12/01 08:05:39;;;;;;;137.23;19.63;;;;;;;21.88;53.29;100460.19;7293019;19;129600;-70
2022/12/01 08:08:05;;;;;;;44.92;12.43;;;;;;;21.91;53.19;100461.75;7305355;19;129113;-70
2022/12/01 08:10:30;;;;;;;59.43;13.70;;;;;;;21.89;53.18;100461.03;7306266;19;133077;-71
2022/12/01 08:12:55;;;;;;;48.97;13.02;;;;;;;21.91;53.41;100459.94;7296525;19;130799;-71
2022/12/01 08:15:21;;;;;;;69.95;14.05;;;;;;;21.92;53.33;100456.38;7305067;19;129039;-71
2022/12/01 08:17:46;;;;;;;74.83;14.77;;;;;;;21.89;53.13;100456.63;7306196;19;129632;-71
2022/12/01 08:20:11;;;;;;;55.65;13.40;;;;;;;21.95;53.33;100460.53;7308698;19;130316;-71
2022/12/01 08:22:37;;;;;;;34.55;11.02;;;;;;;21.95;53.27;100461.38;7310576;19;129127;-71
2022/12/01 08:25:03;;;;;;;69.85;13.93;;;;;;;21.93;53.31;100458.03;7309259;19;129384;-70
2022/12/01 08:27:28;;;;;;;49.87;13.87;;;;;;;21.95;52.76;100466.59;7308997;19;131146;-71
2022/12/01 08:29:54;;;;;;;65.83;13.37;;;;;;;21.96;52.92;100467.44;7309124;19;129804;-70
2022/12/01 08:32:19;;;;;;;54.90;12.98;;;;;;;21.93;52.88;100463.28;7305688;19;129520;-71
2022/12/01 08:34:45;;;;;;;101.25;16.10;;;;;;;21.94;53.01;100467.56;7308305;19;128962;-70
2022/12/01 08:37:10;;;;;;;43.58;12.40;;;;;;;21.95;53.18;100469.22;7298180;19;130913;-70
2022/12/01 08:39:35;;;;;;;50.63;13.20;;;;;;;21.94;53.19;100462.34;7308635;19;129721;-70
2022/12/01 08:42:01;;;;;;;46.63;13.05;;;;;;;21.86;53.31;100462.13;7306628;19;129020;-70
2022/12/01 08:44:26;;;;;;;61.67;13.32;;;;;;;21.91;53.52;100467.78;7310138;19;129859;-71
2022/12/01 08:46:51;;;;;;;50.35;13.25;;;;;;;21.89;53.20;100467.09;7307105;19;129927;-70
2022/12/01 08:49:17;;;;;;;55.63;13.57;;;;;;;21.95;52.97;100460.53;7308081;19;129635;-70
2022/12/01 08:51:42;;;;;;;45.05;12.07;;;;;;;21.83;53.49;100441.38;7305666;19;129659;-71
2022/12/01 08:54:10;;;;;;;39.28;11.80;;;;;;;21.96;52.70;100463.03;7308696;19;129418;-71
2022/12/01 08:56:38;;;;;;;50.22;12.95;;;;;;;21.95;53.29;100463.16;7305115;19;129371;-70
2022/12/01 08:59:04;;;;;;;75.47;14.50;;;;;;;21.98;52.85;100462.94;7308679;19;130970;-71
2022/12/01 09:01:29;;;;;;;41.60;11.93;;;;;;;22.01;53.35;100464.47;7306494;19;130841;-71
2022/12/01 09:04:07;;;;;;;59.40;12.98;;;;;;;22.02;53.08;100466.09;7309949;19;129726;-71
2022/12/01 09:06:44;;;;;;;45.03;12.25;;;;;;;21.98;53.20;100471.59;7306079;19;132442;-72
2022/12/01 09:09:11;;;;;;;;;;;;;;;21.98;53.23;100475.19;7311292;19;132442;-71
2022/12/01 09:11:36;;;;;;;43.83;12.63;;;;;;;21.96;52.79;100473.50;7305943;19;130068;-71
2022/12/01 09:14:02;;;;;;;49.17;13.45;;;;;;;22.00;53.55;100483.75;7306809;19;129011;-71
2022/12/01 09:16:27;;;;;;;45.55;12.45;;;;;;;21.94;53.22;100480.66;7305648;19;132551;-71
2022/12/01 09:18:53;;;;;;;57.00;13.20;;;;;;;21.96;52.98;100478.72;7307430;19;129763;-71
2022/12/01 09:21:21;;;;;;;40.10;12.30;;;;;;;21.88;53.49;100473.28;7306007;19;129230;-72
2022/12/01 09:23:47;;;;;;;88.35;15.55;;;;;;;21.94;53.13;100480.66;7308555;19;128820;-71
2022/12/01 09:26:17;;;;;;;59.37;14.83;;;;;;;21.87;52.92;100462.91;7306624;19;129981;-71
2022/12/01 09:28:43;;;;;;;44.95;12.75;;;;;;;21.95;52.84;100477.09;7308650;19;130502;-72
2022/12/01 09:31:10;;;;;;;52.45;12.70;;;;;;;21.95;53.20;100477.09;7302624;19;129209;-71
2022/12/01 09:33:36;;;;;;;37.90;11.75;;;;;;;21.94;52.84;100474.59;7306781;19;129104;-71
2022/12/01 09:36:04;;;;;;;86.63;16.17;;;;;;;21.96;52.98;100470.06;7307432;19;129057;-71
2022/12/01 09:38:31;;;;;;;51.47;13.27;;;;;;;21.98;52.96;100472.56;7304262;19;133303;-72
2022/12/01 09:41:00;;;;;;;44.55;12.70;;;;;;;21.96;52.69;100473.50;7302492;19;129247;-71
2022/12/01 09:43:29;;;;;;;238.05;28.23;;;;;;;21.96;53.32;100470.88;7297895;19;130056;-70
2022/12/01 09:46:02;;;;;;;87.50;15.70;;;;;;;21.98;53.19;100461.13;7310084;19;131766;-70
2022/12/01 09:48:42;;;;;;;55.40;13.63;;;;;;;21.96;53.26;100460.41;7314018;19;132511;-71
2022/12/01 09:51:12;;;;;;;53.78;13.70;;;;;;;21.97;52.79;100463.88;7307562;19;128987;-70
2022/12/01 09:53:38;;;;;;;69.15;14.40;;;;;;;21.95;53.31;100464.00;7313382;19;129543;-70
2022/12/01 09:56:04;;;;;;;82.15;16.63;;;;;;;21.94;52.69;100462.34;7313736;19;128991;-70
2022/12/01 09:58:31;;;;;;;48.20;13.73;;;;;;;21.94;52.93;100457.09;7310979;19;131205;-70
2022/12/01 10:00:56;;;;;;;58.53;13.95;;;;;;;21.84;53.33;100445.69;7310536;19;129124;-71
2022/12/01 10:03:44;;;;;;;54.60;13.63;;;;;;;21.93;53.36;100460.66;7314342;19;129144;-70
2022/12/01 10:06:19;;;;;;;79.78;16.05;;;;;;;21.93;53.22;100460.66;7314550;19;130095;-73
2022/12/01 10:09:23;;;;;;;53.47;12.55;;;;;;;21.92;53.61;100456.38;7313299;19;130484;-68
2022/12/01 10:11:51;;;;;;;52.35;13.27;;;;;;;21.93;53.70;100452.00;7308833;19;129768;-67
2022/12/01 10:14:18;;;;;;;26.38;11.27;;;;;;;21.94;53.42;100454.47;7315857;19;129341;-67
2022/12/01 10:16:54;;;;;;;62.15;14.02;;;;;;;21.94;53.03;100464.09;7311626;19;129853;-68
2022/12/01 10:19:32;;;;;;;56.67;12.82;;;;;;;21.92;53.31;100445.06;7315177;19;129175;-68
2022/12/01 10:22:04;;;;;;;50.08;12.98;;;;;;;21.98;53.07;100454.22;7311805;19;129846;-69
2022/12/01 10:24:45;;;;;;;37.03;12.10;;;;;;;21.94;53.33;100440.53;7315190;19;129097;-69
2022/12/01 10:27:34;;;;;;;40.42;12.38;;;;;;;21.95;53.29;100440.44;7313006;19;129972;-68
2022/12/01 10:30:08;;;;;;;54.15;13.02;;;;;;;21.95;53.46;100445.66;7314004;19;129955;-67
2022/12/01 10:32:55;;;;;;;29.60;11.15;;;;;;;21.95;53.17;100443.03;7310740;19;129618;-67
2022/12/01 10:35:23;;;;;;;45.92;12.25;;;;;;;21.91;53.33;100441.59;7313256;19;129605;-67
2022/12/01 10:37:55;;;;;;;72.30;14.27;;;;;;;21.94;53.16;100441.38;7310602;19;129342;-67
2022/12/01 10:40:21;;;;;;;60.47;13.60;;;;;;;21.93;53.27;100442.31;7312964;19;129910;-73
2022/12/01 10:42:49;;;;;;;52.35;13.50;;;;;;;21.90;53.08;100441.72;7315074;19;129050;-72
2022/12/01 10:45:27;;;;;;;40.97;12.43;;;;;;;21.81;53.77;100419.75;7311844;19;130435;-75
2022/12/01 10:48:14;;;;;;;50.63;12.65;;;;;;;21.87;53.48;100429.72;7313188;19;129783;-71
2022/12/01 10:50:42;;;;;;;53.03;13.35;;;;;;;21.93;53.20;100433.66;7311519;19;129600;-72
2022/12/01 10:53:25;;;;;;;48.72;12.50;;;;;;;21.93;53.41;100439.72;7315153;19;129660;-74
2022/12/01 10:56:13;;;;;;;69.88;14.10;;;;;;;21.95;53.25;100439.59;7310543;19;129401;-70
2022/12/01 10:59:01;;;;;;;65.35;13.88;;;;;;;21.91;53.30;100439.00;7311142;19;129554;-71
2022/12/01 11:01:34;;;;;;;62.83;14.60;;;;;;;21.95;53.34;100445.66;7308840;19;130003;-71
2022/12/01 11:04:20;;;;;;;67.78;14.18;;;;;;;21.87;53.51;100423.66;7311130;19;128787;-73
2022/12/01 11:06:49;;;;;;;67.18;14.70;;;;;;;21.98;53.41;100438.53;7307405;19;129552;-72
2022/12/01 11:09:22;;;;;;;60.00;13.10;;;;;;;21.96;52.85;100436.03;7308224;19;131972;-71
2022/12/01 11:11:55;;;;;;;54.05;12.90;;;;;;;21.94;53.77;100432.69;7310558;19;130111;-71
2022/12/01 11:14:32;;;;;;;48.80;13.93;;;;;;;21.91;52.63;100436.38;7310494;19;129306;-72
2022/12/01 11:17:25;;;;;;;70.05;15.07;;;;;;;21.93;51.69;100429.22;7310786;19;129676;-72
2022/12/01 11:19:51;;;;;;;83.50;16.15;;;;;;;21.87;51.82;100437.59;7312486;19;129631;-73
2022/12/01 11:22:27;;;;;;;64.87;15.23;;;;;;;21.91;51.85;100433.75;7313642;19;130139;-73
2022/12/01 11:24:53;;;;;;;49.40;13.80;;;;;;;21.86;52.30;100409.75;7312941;19;129235;-74
2022/12/01 11:27:24;;;;;;;65.30;14.33;;;;;;;22.03;52.77;100431.13;7311665;19;129383;-74
2022/12/01 11:29:54;;;;;;;41.10;12.45;;;;;;;22.04;52.82;100422.31;7312101;19;130116;-73